Time;durP1;ratioP1;P1;durP2;ratioP2;P2;SDS_P1;SDS_P2;PMS_P1;PMS_P2;Temp;Humidity;BMP_temperature;BMP_pressure;BME280_temperature;BME280_humidity;BME280_pressure;Samples;Min_cycle;Max_cycle;Signal;HPM_P1;HPM_P2
2023/03/29 00:00:31;;;;;;;4.43;2.10;;;;;;;;;;6247392;28;20277;-63
2023/03/29 00:03:33;;;;;;;3.47;2.40;;;;;;;;;;6233241;28;20194;-64
2023/03/29 00:06:34;;;;;;;3.57;2.47;;;;;;;;;;6250569;28;20204;-64
2023/03/29 00:09:36;;;;;;;3.37;2.23;;;;;;;;;;6247646;28;20190;-64
2023/03/29 00:12:38;;;;;;;5.10;2.57;;;;;;;;;;6223701;28;20214;-63
2023/03/29 00:15:40;;;;;;;3.53;2.20;;;;;;;;;;6244392;28;20196;-63
2023/03/29 00:18:41;;;;;;;3.80;2.07;;;;;;;;;;6237542;28;20192;-63
2023/03/29 00:21:42;;;;;;;2.50;2.00;;;;;;;;;;6233593;28;20277;-63
2023/03/29 00:24:46;;;;;;;4.33;2.40;;;;;;;;;;6269014;28;20221;-63
2023/03/29 00:27:47;;;;;;;3.90;2.87;;;;;;;;;;6267942;28;20198;-64
2023/03/29 00:30:51;;;;;;;2.27;1.93;;;;;;;;;;6255941;28;20304;-63
2023/03/29 00:33:52;;;;;;;3.37;2.27;;;;;;;;;;6247852;28;20606;-64
2023/03/29 00:36:56;;;;;;;2.50;1.80;;;;;;;;;;6258744;28;20190;-63
2023/03/29 00:39:57;;;;;;;2.20;1.70;;;;;;;;;;6235728;28;20194;-63
2023/03/29 00:42:59;;;;;;;2.40;1.90;;;;;;;;;;6229231;28;20199;-63
2023/03/29 00:46:00;;;;;;;4.13;2.10;;;;;;;;;;6242934;28;20329;-63
2023/03/29 00:49:04;;;;;;;2.53;1.97;;;;;;;;;;6234772;28;20197;-63
2023/03/29 00:52:06;;;;;;;2.50;2.00;;;;;;;;;;6251253;28;20219;-63
2023/03/29 00:55:11;;;;;;;2.60;1.90;;;;;;;;;;6245018;28;20187;-63
2023/03/29 00:58:14;;;;;;;3.03;2.07;;;;;;;;;;6265965;28;20194;-63
2023/03/29 01:01:18;;;;;;;3.23;2.10;;;;;;;;;;6250662;28;20199;-63
2023/03/29 01:04:24;;;;;;;2.40;2.00;;;;;;;;;;6254466;28;20228;-63
2023/03/29 01:07:29;;;;;;;5.47;2.40;;;;;;;;;;6235463;28;20211;-63
2023/03/29 01:10:39;;;;;;;4.83;2.83;;;;;;;;;;6270429;28;20257;-63
2023/03/29 01:13:43;;;;;;;4.20;2.77;;;;;;;;;;6248237;28;20311;-63
2023/03/29 01:16:45;;;;;;;2.83;2.53;;;;;;;;;;6238141;28;20184;-63
2023/03/29 01:19:49;;;;;;;5.07;3.53;;;;;;;;;;6245030;28;20273;-63
2023/03/29 01:22:53;;;;;;;3.13;2.60;;;;;;;;;;6250162;28;20232;-64
2023/03/29 01:26:08;;;;;;;3.17;2.60;;;;;;;;;;6249772;28;20187;-63
2023/03/29 01:29:13;;;;;;;3.77;2.77;;;;;;;;;;6249594;28;20193;-63
2023/03/29 01:32:16;;;;;;;3.97;2.40;;;;;;;;;;6242996;28;20235;-63
2023/03/29 01:35:23;;;;;;;4.27;2.47;;;;;;;;;;6256258;28;20188;-63
2023/03/29 01:38:34;;;;;;;3.37;2.40;;;;;;;;;;6266409;28;20194;-63
2023/03/29 01:41:41;;;;;;;3.20;2.00;;;;;;;;;;6249618;28;20195;-63
2023/03/29 01:45:08;;;;;;;3.93;2.50;;;;;;;;;;6259285;28;20217;-63
2023/03/29 01:48:16;;;;;;;2.77;2.20;;;;;;;;;;6253159;28;20225;-63
2023/03/29 01:51:17;;;;;;;2.30;2.10;;;;;;;;;;6246468;28;20187;-63
2023/03/29 01:54:20;;;;;;;3.10;2.13;;;;;;;;;;6257041;28;20175;-63
2023/03/29 01:57:23;;;;;;;2.60;1.80;;;;;;;;;;6267806;28;20214;-63
2023/03/29 02:00:26;;;;;;;2.70;1.80;;;;;;;;;;6246697;28;20183;-63
2023/03/29 02:03:29;;;;;;;4.07;2.67;;;;;;;;;;6242180;28;20183;-63
2023/03/29 02:06:32;;;;;;;2.57;1.87;;;;;;;;;;6245454;28;20195;-63
2023/03/29 02:09:33;;;;;;;3.10;2.17;;;;;;;;;;6250050;28;20199;-63
2023/03/29 02:12:34;;;;;;;2.80;2.40;;;;;;;;;;6265826;28;20225;-63
2023/03/29 02:15:36;;;;;;;5.43;1.83;;;;;;;;;;6248281;28;20280;-63
2023/03/29 02:18:38;;;;;;;4.03;2.40;;;;;;;;;;6231198;28;20192;-63
2023/03/29 02:21:52;;;;;;;3.10;2.47;;;;;;;;;;6225516;28;20198;-63
2023/03/29 02:24:57;;;;;;;4.40;2.40;;;;;;;;;;6254679;28;20203;-63
2023/03/29 02:27:59;;;;;;;5.33;2.30;;;;;;;;;;6236672;28;20197;-63
2023/03/29 02:31:03;;;;;;;3.30;2.10;;;;;;;;;;6225135;28;20244;-63
2023/03/29 02:34:07;;;;;;;2.47;2.00;;;;;;;;;;6230258;28;20226;-63
2023/03/29 02:37:12;;;;;;;3.27;2.30;;;;;;;;;;6249083;28;20186;-63
2023/03/29 02:40:13;;;;;;;4.47;2.20;;;;;;;;;;6245618;28;20195;-63
2023/03/29 02:43:15;;;;;;;2.03;1.80;;;;;;;;;;6234000;28;20188;-64
2023/03/29 02:46:18;;;;;;;2.07;1.80;;;;;;;;;;6250969;28;20195;-64
2023/03/29 02:49:19;;;;;;;4.20;2.03;;;;;;;;;;6245193;28;20190;-64
2023/03/29 02:52:32;;;;;;;5.77;2.13;;;;;;;;;;6237552;28;20211;-64
2023/03/29 02:55:34;;;;;;;2.40;1.90;;;;;;;;;;6248487;28;20229;-64
2023/03/29 02:58:35;;;;;;;2.83;1.80;;;;;;;;;;6256178;28;20191;-64
2023/03/29 03:01:36;;;;;;;2.43;1.97;;;;;;;;;;6224533;28;20257;-64
2023/03/29 03:04:37;;;;;;;2.37;1.93;;;;;;;;;;6229918;28;20198;-64
2023/03/29 03:07:39;;;;;;;2.37;1.90;;;;;;;;;;6235529;28;20199;-64
2023/03/29 03:10:40;;;;;;;3.10;2.30;;;;;;;;;;6249238;28;20203;-64
2023/03/29 03:13:41;;;;;;;4.07;2.33;;;;;;;;;;6231038;28;20242;-63
2023/03/29 03:16:42;;;;;;;3.70;2.67;;;;;;;;;;6263837;28;20192;-64
2023/03/29 03:19:43;;;;;;;3.47;2.13;;;;;;;;;;6252192;28;20205;-61
2023/03/29 03:22:48;;;;;;;3.97;1.77;;;;;;;;;;6219496;28;20199;-61
2023/03/29 03:25:51;;;;;;;2.00;1.60;;;;;;;;;;6248239;28;20199;-62
2023/03/29 03:28:53;;;;;;;3.23;1.83;;;;;;;;;;6227406;28;20190;-62
2023/03/29 03:31:54;;;;;;;2.80;1.63;;;;;;;;;;6219473;28;20277;-62
2023/03/29 03:34:55;;;;;;;2.40;2.07;;;;;;;;;;6218200;28;20225;-62
2023/03/29 03:37:56;;;;;;;4.03;2.40;;;;;;;;;;6231351;28;20275;-63
2023/03/29 03:40:58;;;;;;;5.00;2.27;;;;;;;;;;6263057;28;20186;-63
2023/03/29 03:43:59;;;;;;;2.47;1.87;;;;;;;;;;6252715;28;20195;-63
2023/03/29 03:47:00;;;;;;;3.43;2.50;;;;;;;;;;6246032;28;20228;-63
2023/03/29 03:50:02;;;;;;;3.37;2.20;;;;;;;;;;6226116;28;20201;-63
2023/03/29 03:53:04;;;;;;;3.67;2.00;;;;;;;;;;6257080;28;20210;-63
2023/03/29 03:56:07;;;;;;;3.73;2.57;;;;;;;;;;6228417;28;20187;-63
2023/03/29 03:59:09;;;;;;;2.60;1.40;;;;;;;;;;6248730;28;20195;-63
2023/03/29 04:02:10;;;;;;;3.70;1.90;;;;;;;;;;6233198;28;20218;-63
2023/03/29 04:05:11;;;;;;;3.27;2.33;;;;;;;;;;6267646;28;20206;-63
2023/03/29 04:08:13;;;;;;;2.60;1.77;;;;;;;;;;6265682;28;20200;-63
2023/03/29 04:11:14;;;;;;;3.10;1.90;;;;;;;;;;6249687;28;20187;-63
2023/03/29 04:14:15;;;;;;;1.70;1.30;;;;;;;;;;6238101;28;20205;-63
2023/03/29 04:17:16;;;;;;;1.77;1.63;;;;;;;;;;6265822;28;20218;-62
2023/03/29 04:20:17;;;;;;;4.00;2.30;;;;;;;;;;6241858;28;20281;-63
2023/03/29 04:23:18;;;;;;;2.73;2.33;;;;;;;;;;6235327;28;21455;-62
2023/03/29 04:26:21;;;;;;;4.23;2.23;;;;;;;;;;6264208;28;20256;-63
2023/03/29 04:29:22;;;;;;;2.37;1.53;;;;;;;;;;6234970;28;20199;-63
2023/03/29 04:32:23;;;;;;;3.27;1.60;;;;;;;;;;6227639;28;20249;-63
2023/03/29 04:35:24;;;;;;;2.10;1.73;;;;;;;;;;6250934;28;20248;-62
2023/03/29 04:38:25;;;;;;;2.70;2.00;;;;;;;;;;6233328;28;20195;-62
2023/03/29 04:41:27;;;;;;;2.03;1.70;;;;;;;;;;6246936;28;20198;-62
2023/03/29 04:44:28;;;;;;;4.10;2.00;;;;;;;;;;6246734;28;20272;-62
2023/03/29 04:47:30;;;;;;;1.73;1.40;;;;;;;;;;6257125;28;20194;-62
2023/03/29 04:50:31;;;;;;;2.13;1.50;;;;;;;;;;6262491;28;20201;-62
2023/03/29 04:53:32;;;;;;;3.83;1.67;;;;;;;;;;6260045;28;20262;-62
2023/03/29 04:56:33;;;;;;;1.73;1.63;;;;;;;;;;6238664;28;20187;-62
2023/03/29 04:59:34;;;;;;;2.87;1.60;;;;;;;;;;6231510;28;20203;-62
2023/03/29 05:02:35;;;;;;;3.23;1.97;;;;;;;;;;6254657;28;20186;-62
2023/03/29 05:05:37;;;;;;;1.43;1.33;;;;;;;;;;6232857;28;20229;-62
2023/03/29 05:08:39;;;;;;;2.17;1.97;;;;;;;;;;6242805;28;20277;-62
2023/03/29 05:11:40;;;;;;;2.13;1.90;;;;;;;;;;6261645;28;20269;-62
2023/03/29 05:14:41;;;;;;;1.77;1.67;;;;;;;;;;6227550;28;20190;-62
2023/03/29 05:17:42;;;;;;;4.77;2.23;;;;;;;;;;6225878;28;20198;-61
2023/03/29 05:20:44;;;;;;;5.13;1.83;;;;;;;;;;6258136;28;20195;-62
2023/03/29 05:23:45;;;;;;;4.33;2.03;;;;;;;;;;6220249;28;20307;-62
2023/03/29 05:26:46;;;;;;;2.53;2.00;;;;;;;;;;6262448;28;20205;-62
2023/03/29 05:29:47;;;;;;;3.07;2.30;;;;;;;;;;6242936;28;20198;-62
2023/03/29 05:32:48;;;;;;;2.97;2.23;;;;;;;;;;6246176;28;20238;-64
2023/03/29 05:35:58;;;;;;;3.87;2.10;;;;;;;;;;6222054;28;20191;-62
2023/03/29 05:39:00;;;;;;;4.73;2.03;;;;;;;;;;6243849;28;20199;-62
2023/03/29 05:42:01;;;;;;;3.60;2.77;;;;;;;;;;6224703;28;20202;-63
2023/03/29 05:45:03;;;;;;;3.37;2.37;;;;;;;;;;6246439;28;20241;-63
2023/03/29 05:48:04;;;;;;;4.77;2.43;;;;;;;;;;6246074;28;20190;-63
2023/03/29 05:51:05;;;;;;;2.27;2.03;;;;;;;;;;6231795;28;20289;-63
2023/03/29 05:54:06;;;;;;;4.23;2.37;;;;;;;;;;6232029;28;20253;-63
2023/03/29 05:57:07;;;;;;;2.17;1.97;;;;;;;;;;6267663;28;20286;-63
2023/03/29 06:00:22;;;;;;;4.97;2.10;;;;;;;;;;6225489;28;20214;-62
2023/03/29 06:03:26;;;;;;;2.90;1.83;;;;;;;;;;6236290;28;20199;-62
2023/03/29 06:06:27;;;;;;;4.20;2.00;;;;;;;;;;6246221;28;20205;-61
2023/03/29 06:09:28;;;;;;;4.57;2.37;;;;;;;;;;6245788;28;20226;-61
2023/03/29 06:12:29;;;;;;;3.20;2.30;;;;;;;;;;6223448;28;20223;-61
2023/03/29 06:15:31;;;;;;;3.50;2.13;;;;;;;;;;6224446;28;20260;-61
2023/03/29 06:18:32;;;;;;;3.60;2.03;;;;;;;;;;6220905;28;20214;-61
2023/03/29 06:21:34;;;;;;;2.73;2.07;;;;;;;;;;6245945;28;20182;-62
2023/03/29 06:24:35;;;;;;;3.57;2.23;;;;;;;;;;6224234;28;20195;-61
2023/03/29 06:27:37;;;;;;;5.33;2.93;;;;;;;;;;6233467;28;20201;-61
2023/03/29 06:30:38;;;;;;;4.50;2.73;;;;;;;;;;6229669;28;20201;-61
2023/03/29 06:33:41;;;;;;;3.90;2.63;;;;;;;;;;6232854;28;20270;-61
2023/03/29 06:36:44;;;;;;;2.33;2.13;;;;;;;;;;6234498;28;20269;-61
2023/03/29 06:39:45;;;;;;;3.60;2.53;;;;;;;;;;6229961;28;20199;-61
2023/03/29 06:42:47;;;;;;;3.27;2.50;;;;;;;;;;6230145;28;20248;-61
2023/03/29 06:45:48;;;;;;;3.53;2.53;;;;;;;;;;6243844;28;20221;-62
2023/03/29 06:48:49;;;;;;;4.63;2.57;;;;;;;;;;6220273;28;20217;-62
2023/03/29 06:51:50;;;;;;;4.23;2.57;;;;;;;;;;6216694;28;20279;-62
2023/03/29 06:54:51;;;;;;;6.90;3.17;;;;;;;;;;6215805;28;20208;-62
2023/03/29 06:57:53;;;;;;;4.17;2.50;;;;;;;;;;6222736;28;20211;-62
2023/03/29 07:00:59;;;;;;;4.67;2.97;;;;;;;;;;6248080;28;20328;-62
2023/03/29 07:04:03;;;;;;;3.33;2.80;;;;;;;;;;6240507;28;20194;-61
2023/03/29 07:07:06;;;;;;;4.93;2.83;;;;;;;;;;6263110;28;20202;-61
2023/03/29 07:10:07;;;;;;;4.97;3.00;;;;;;;;;;6261899;28;20285;-61
2023/03/29 07:13:12;;;;;;;7.77;3.20;;;;;;;;;;6223929;28;20210;-61
2023/03/29 07:16:13;;;;;;;4.77;2.93;;;;;;;;;;6235527;28;20195;-61
2023/03/29 07:19:14;;;;;;;4.30;2.90;;;;;;;;;;6231836;28;20191;-61
2023/03/29 07:22:15;;;;;;;4.43;3.20;;;;;;;;;;6225744;28;20289;-61
2023/03/29 07:25:17;;;;;;;3.77;3.07;;;;;;;;;;6226993;28;20213;-61
2023/03/29 07:28:18;;;;;;;6.90;3.20;;;;;;;;;;6225477;28;20195;-61
2023/03/29 07:31:19;;;;;;;7.83;3.47;;;;;;;;;;6228190;28;20265;-61
2023/03/29 07:34:21;;;;;;;5.00;3.20;;;;;;;;;;6223799;28;20268;-62
2023/03/29 07:37:23;;;;;;;5.87;3.87;;;;;;;;;;6226513;28;20191;-62
2023/03/29 07:40:24;;;;;;;6.87;3.77;;;;;;;;;;6259773;28;20289;-62
2023/03/29 07:43:25;;;;;;;4.63;3.17;;;;;;;;;;6219789;28;20261;-62
2023/03/29 07:46:28;;;;;;;5.53;3.27;;;;;;;;;;6258655;28;20277;-61
2023/03/29 07:49:29;;;;;;;4.30;3.40;;;;;;;;;;6235931;28;20199;-62
2023/03/29 07:52:31;;;;;;;4.20;2.83;;;;;;;;;;6246137;28;20297;-61
2023/03/29 07:55:32;;;;;;;5.57;3.13;;;;;;;;;;6247455;28;20253;-62
2023/03/29 07:58:34;;;;;;;5.47;3.60;;;;;;;;;;6260841;28;20199;-61
2023/03/29 08:01:35;;;;;;;6.60;3.43;;;;;;;;;;6260566;28;20193;-62
2023/03/29 08:04:36;;;;;;;5.77;3.50;;;;;;;;;;6226203;28;20202;-61
2023/03/29 08:07:37;;;;;;;3.00;2.60;;;;;;;;;;6219725;28;20201;-61
2023/03/29 08:10:39;;;;;;;8.43;3.50;;;;;;;;;;6261736;28;20208;-62
2023/03/29 08:13:40;;;;;;;4.23;3.27;;;;;;;;;;6220716;28;20374;-61
2023/03/29 08:16:41;;;;;;;3.97;3.00;;;;;;;;;;6258748;28;20202;-61
2023/03/29 08:19:42;;;;;;;3.70;2.53;;;;;;;;;;6218576;28;20313;-62
2023/03/29 08:22:43;;;;;;;5.40;3.23;;;;;;;;;;6227898;28;20208;-62
2023/03/29 08:25:46;;;;;;;10.73;3.80;;;;;;;;;;6261406;28;20191;-62
2023/03/29 08:28:47;;;;;;;5.47;3.20;;;;;;;;;;6243145;28;20195;-62
2023/03/29 08:31:48;;;;;;;3.20;2.90;;;;;;;;;;6217405;28;20270;-62
2023/03/29 08:34:49;;;;;;;5.33;2.87;;;;;;;;;;6218526;28;20225;-62
2023/03/29 08:37:50;;;;;;;5.33;2.73;;;;;;;;;;6225945;28;20186;-62
2023/03/29 08:40:51;;;;;;;5.17;2.60;;;;;;;;;;6260591;28;20280;-62
2023/03/29 08:44:00;;;;;;;3.00;2.60;;;;;;;;;;6230559;28;20223;-62
2023/03/29 08:47:09;;;;;;;5.60;2.70;;;;;;;;;;6249613;28;20209;-62
2023/03/29 08:50:11;;;;;;;2.67;2.27;;;;;;;;;;6239378;28;20285;-62
2023/03/29 08:53:14;;;;;;;5.30;3.03;;;;;;;;;;6252419;28;20340;-62
2023/03/29 08:56:17;;;;;;;3.57;2.20;;;;;;;;;;6249044;28;20186;-62
2023/03/29 08:59:22;;;;;;;2.87;2.20;;;;;;;;;;6245470;28;20295;-62
2023/03/29 09:02:25;;;;;;;5.50;2.83;;;;;;;;;;6245448;28;20225;-62
2023/03/29 09:05:33;;;;;;;4.20;2.40;;;;;;;;;;6245778;28;20199;-62
2023/03/29 09:08:42;;;;;;;5.83;2.87;;;;;;;;;;6246102;28;20289;-62
2023/03/29 09:11:46;;;;;;;4.77;2.43;;;;;;;;;;6276424;28;20215;-62
2023/03/29 09:15:03;;;;;;;3.57;2.57;;;;;;;;;;6249499;28;20186;-62
2023/03/29 09:18:10;;;;;;;4.10;2.60;;;;;;;;;;6241026;28;20202;-62
2023/03/29 09:21:16;;;;;;;5.63;3.10;;;;;;;;;;6252355;28;20190;-62
2023/03/29 09:24:17;;;;;;;6.03;2.47;;;;;;;;;;6230063;28;20198;-62
2023/03/29 09:27:21;;;;;;;3.80;2.10;;;;;;;;;;6241386;28;20199;-61
2023/03/29 09:30:25;;;;;;;3.10;2.43;;;;;;;;;;6247542;28;20262;-62
2023/03/29 09:33:41;;;;;;;5.47;2.50;;;;;;;;;;6229672;28;20231;-62
2023/03/29 09:37:09;;;;;;;4.67;2.43;;;;;;;;;;6243270;28;20191;-62
2023/03/29 09:40:16;;;;;;;3.27;2.70;;;;;;;;;;6212352;28;20232;-62
2023/03/29 09:43:22;;;;;;;4.80;2.77;;;;;;;;;;6236430;28;20199;-62
2023/03/29 09:46:40;;;;;;;2.83;2.30;;;;;;;;;;6260119;28;20198;-62
2023/03/29 09:49:43;;;;;;;3.53;2.30;;;;;;;;;;6244285;28;20210;-62
2023/03/29 09:52:45;;;;;;;5.50;3.07;;;;;;;;;;6244867;28;20268;-62
2023/03/29 09:55:48;;;;;;;5.87;2.93;;;;;;;;;;6244008;28;20189;-62
2023/03/29 09:58:49;;;;;;;4.77;2.60;;;;;;;;;;6239982;28;20195;-62
2023/03/29 10:01:50;;;;;;;5.60;2.80;;;;;;;;;;6220422;28;20191;-62
2023/03/29 10:04:54;;;;;;;4.33;2.90;;;;;;;;;;6252300;28;20219;-62
2023/03/29 10:07:58;;;;;;;2.83;2.40;;;;;;;;;;6237469;28;20226;-62
2023/03/29 10:11:00;;;;;;;6.43;3.03;;;;;;;;;;6244232;28;20195;-64
2023/03/29 10:14:03;;;;;;;4.63;2.57;;;;;;;;;;6254980;28;20210;-64
2023/03/29 10:17:06;;;;;;;3.97;2.67;;;;;;;;;;6238780;28;20186;-64
2023/03/29 10:20:12;;;;;;;3.40;2.53;;;;;;;;;;6240235;28;20274;-64
2023/03/29 10:23:16;;;;;;;4.27;2.90;;;;;;;;;;6246367;28;20195;-62
2023/03/29 10:26:21;;;;;;;5.17;2.50;;;;;;;;;;6246181;28;20250;-63
2023/03/29 10:29:23;;;;;;;3.47;2.40;;;;;;;;;;6242594;28;20195;-64
2023/03/29 10:32:35;;;;;;;4.37;2.43;;;;;;;;;;6229807;28;20249;-63
2023/03/29 10:35:40;;;;;;;2.57;2.13;;;;;;;;;;6244757;28;20258;-62
2023/03/29 10:38:43;;;;;;;5.27;2.23;;;;;;;;;;6246227;28;20186;-62
2023/03/29 10:41:45;;;;;;;6.17;3.00;;;;;;;;;;6245666;28;20229;-63
2023/03/29 10:44:56;;;;;;;4.07;2.37;;;;;;;;;;6228899;28;20206;-65
2023/03/29 10:47:58;;;;;;;2.40;2.07;;;;;;;;;;6241634;28;20251;-62
2023/03/29 10:51:04;;;;;;;3.50;2.33;;;;;;;;;;6255491;28;20198;-62
2023/03/29 10:54:06;;;;;;;2.83;1.93;;;;;;;;;;6238894;28;20225;-62
2023/03/29 10:57:09;;;;;;;4.37;2.60;;;;;;;;;;6243495;28;20193;-62
2023/03/29 11:00:17;;;;;;;3.10;2.33;;;;;;;;;;6260800;28;20200;-62
2023/03/29 11:03:28;;;;;;;4.73;2.53;;;;;;;;;;6238246;28;20402;-62
2023/03/29 11:06:32;;;;;;;4.00;2.43;;;;;;;;;;6241622;28;20241;-63
2023/03/29 11:09:50;;;;;;;5.63;2.57;;;;;;;;;;6244824;28;20281;-64
2023/03/29 11:13:00;;;;;;;4.77;2.10;;;;;;;;;;6226344;28;20222;-62
2023/03/29 11:16:36;;;;;;;3.60;2.20;;;;;;;;;;6243702;28;20187;-62
2023/03/29 11:19:43;;;;;;;3.50;2.53;;;;;;;;;;6180847;28;20384;-62
2023/03/29 11:22:48;;;;;;;4.23;2.33;;;;;;;;;;6245946;28;20257;-64
2023/03/29 11:25:58;;;;;;;3.50;2.13;;;;;;;;;;6245416;28;20198;-64
2023/03/29 11:29:07;;;;;;;4.07;2.00;;;;;;;;;;6237633;28;20195;-62
2023/03/29 11:32:08;;;;;;;2.87;1.70;;;;;;;;;;6252554;28;20234;-62
2023/03/29 11:35:09;;;;;;;3.00;1.87;;;;;;;;;;6240623;28;20225;-61
2023/03/29 11:38:20;;;;;;;4.50;1.80;;;;;;;;;;6256342;28;20190;-62
2023/03/29 11:41:24;;;;;;;2.50;2.00;;;;;;;;;;6245772;28;20253;-62
2023/03/29 11:44:31;;;;;;;3.80;1.70;;;;;;;;;;6256909;28;20320;-62
2023/03/29 11:47:36;;;;;;;1.87;1.60;;;;;;;;;;6214394;28;20187;-62
2023/03/29 11:50:44;;;;;;;1.70;1.60;;;;;;;;;;6244892;28;20194;-62
2023/03/29 11:53:45;;;;;;;2.43;1.90;;;;;;;;;;6251987;28;20210;-62
2023/03/29 11:56:54;;;;;;;1.30;1.20;;;;;;;;;;6252925;28;20183;-62
2023/03/29 12:00:04;;;;;;;1.60;1.50;;;;;;;;;;6246684;28;20286;-62
2023/03/29 12:03:20;;;;;;;3.20;1.80;;;;;;;;;;6243804;28;20198;-62
2023/03/29 12:06:41;;;;;;;3.50;2.40;;;;;;;;;;6229667;28;20223;-62
2023/03/29 12:09:49;;;;;;;2.50;1.70;;;;;;;;;;6249840;28;20210;-62
2023/03/29 12:13:01;;;;;;;5.63;1.77;;;;;;;;;;6242074;28;20266;-62
2023/03/29 12:16:12;;;;;;;2.83;1.60;;;;;;;;;;6242775;28;20187;-62
2023/03/29 12:19:18;;;;;;;2.57;1.60;;;;;;;;;;6247628;28;20206;-61
2023/03/29 12:22:19;;;;;;;2.80;1.63;;;;;;;;;;6246160;28;20184;-62
2023/03/29 12:25:26;;;;;;;3.30;1.70;;;;;;;;;;6267748;28;20198;-62
2023/03/29 12:28:35;;;;;;;2.23;1.43;;;;;;;;;;6237887;28;20195;-62
2023/03/29 12:31:40;;;;;;;2.87;1.70;;;;;;;;;;6249041;28;20242;-62
2023/03/29 12:34:44;;;;;;;1.40;1.23;;;;;;;;;;6246845;28;20252;-62
2023/03/29 12:38:08;;;;;;;2.47;1.60;;;;;;;;;;6244999;28;20191;-62
2023/03/29 12:41:14;;;;;;;2.47;1.87;;;;;;;;;;6239841;28;20219;-62
2023/03/29 12:44:16;;;;;;;2.70;1.40;;;;;;;;;;6242478;28;20183;-62
2023/03/29 12:47:22;;;;;;;2.17;1.50;;;;;;;;;;6230489;28;20222;-62
2023/03/29 12:50:24;;;;;;;2.43;1.40;;;;;;;;;;6244776;28;20210;-62
2023/03/29 12:53:25;;;;;;;2.47;1.40;;;;;;;;;;6254390;28;20348;-62
2023/03/29 12:56:35;;;;;;;3.27;1.70;;;;;;;;;;6240692;28;20190;-62
2023/03/29 12:59:38;;;;;;;3.93;1.70;;;;;;;;;;6245149;28;20273;-62
2023/03/29 13:02:39;;;;;;;2.23;1.80;;;;;;;;;;6247970;28;20226;-62
2023/03/29 13:05:40;;;;;;;1.97;1.77;;;;;;;;;;6231737;28;20245;-62
2023/03/29 13:08:43;;;;;;;2.57;1.43;;;;;;;;;;6226314;28;20195;-62
2023/03/29 13:11:44;;;;;;;2.47;1.43;;;;;;;;;;6240683;28;20249;-62
2023/03/29 13:14:56;;;;;;;4.20;1.90;;;;;;;;;;6244305;28;20182;-62
2023/03/29 13:18:16;;;;;;;2.27;1.70;;;;;;;;;;6248805;28;20183;-61
2023/03/29 13:21:27;;;;;;;2.53;1.90;;;;;;;;;;6254911;28;20226;-61
2023/03/29 13:24:28;;;;;;;2.13;1.70;;;;;;;;;;6237678;28;20192;-62
2023/03/29 13:27:35;;;;;;;2.50;1.40;;;;;;;;;;6231877;28;20301;-62
2023/03/29 13:30:40;;;;;;;2.47;1.83;;;;;;;;;;6271302;28;20198;-62
2023/03/29 13:34:01;;;;;;;2.17;1.70;;;;;;;;;;6281394;28;20220;-62
2023/03/29 13:37:05;;;;;;;1.87;1.50;;;;;;;;;;6244764;28;20245;-62
2023/03/29 13:40:25;;;;;;;2.63;1.77;;;;;;;;;;6250577;28;20479;-62
2023/03/29 13:43:32;;;;;;;3.37;2.00;;;;;;;;;;6254803;28;20187;-61
2023/03/29 13:46:39;;;;;;;3.23;2.00;;;;;;;;;;6246404;28;20207;-61
2023/03/29 13:49:42;;;;;;;3.00;2.43;;;;;;;;;;6242903;28;20187;-62
2023/03/29 13:52:50;;;;;;;2.20;1.93;;;;;;;;;;6260505;28;20218;-62
2023/03/29 13:55:52;;;;;;;2.83;1.77;;;;;;;;;;6238811;28;20191;-61
2023/03/29 13:59:02;;;;;;;3.37;1.83;;;;;;;;;;6248659;28;20278;-63
2023/03/29 14:02:05;;;;;;;2.03;1.80;;;;;;;;;;6237244;28;20254;-64
2023/03/29 14:05:08;;;;;;;2.20;1.63;;;;;;;;;;6249653;28;20191;-62
2023/03/29 14:08:24;;;;;;;2.83;2.10;;;;;;;;;;6248018;28;20186;-62
2023/03/29 14:11:27;;;;;;;3.03;2.00;;;;;;;;;;6249110;28;20207;-62
2023/03/29 14:14:30;;;;;;;2.97;2.10;;;;;;;;;;6246489;28;20214;-62
2023/03/29 14:17:31;;;;;;;3.23;2.43;;;;;;;;;;6240402;28;20187;-61
2023/03/29 14:20:33;;;;;;;3.30;1.97;;;;;;;;;;6258582;28;20211;-61
2023/03/29 14:23:36;;;;;;;3.40;2.67;;;2.50;51.50;;;;;;6256694;28;20270;-61
2023/03/29 14:26:39;;;;;;;3.80;2.30;;;12.90;30.70;;;;;;6253546;28;20199;-62
2023/03/29 14:29:40;;;;;;;2.50;2.30;;;13.50;30.70;;;;;;6246115;28;20199;-62
2023/03/29 14:32:41;;;;;;;3.07;2.27;;;;;;;;;;6248308;28;20233;-62
2023/03/29 14:35:42;;;;;;;3.03;2.23;;;;;;;;;;6231429;28;20287;-62
2023/03/29 14:38:46;;;;;;;3.57;2.53;;;;;;;;;;6263494;28;20205;-62
2023/03/29 14:41:55;;;;;;;3.67;2.60;;;14.90;29.70;;;;;;6247541;28;20190;-62
2023/03/29 14:45:08;;;;;;;2.70;2.50;;;17.40;26.50;;;;;;6247119;28;20202;-62
2023/03/29 14:48:12;;;;;;;4.00;2.90;;;18.70;27.90;;;;;;6258712;28;20205;-62
2023/03/29 14:51:13;;;;;;;5.10;3.87;;;18.50;25.70;;;;;;6248326;28;20187;-62
2023/03/29 14:54:24;;;;;;;7.73;3.70;;;17.90;26.40;;;;;;6232064;28;20214;-62
2023/03/29 14:57:27;;;;;;;8.87;3.73;;;16.70;26.80;;;;;;6242635;28;20289;-62
2023/03/29 15:00:37;;;;;;;4.80;4.00;;;16.50;28.50;;;;;;6258556;28;20203;-62
2023/03/29 15:03:43;;;;;;;6.53;3.90;;;16.40;28.30;;;;;;6246845;28;20187;-62
2023/03/29 15:06:49;;;;;;;5.80;3.80;;;17.00;28.00;;;;;;6245980;28;20219;-62
2023/03/29 15:09:50;;;;;;;7.83;3.97;;;17.10;27.90;;;;;;6227744;28;20248;-62
2023/03/29 15:12:52;;;;;;;5.10;3.50;;;16.60;28.50;;;;;;6227099;28;20225;-62
2023/03/29 15:15:59;;;;;;;4.87;4.00;;;17.00;27.90;;;;;;6240763;28;20293;-62
2023/03/29 15:19:01;;;;;;;6.60;4.23;;;17.80;27.20;;;;;;6246384;28;20364;-61
2023/03/29 15:22:09;;;;;;;5.07;4.07;;;17.40;28.10;;;;;;6260339;28;20209;-61
2023/03/29 15:25:16;;;;;;;4.70;4.10;;;16.20;28.70;;;;;;6225200;28;20198;-61
2023/03/29 15:28:24;;;;;;;5.20;3.77;;;16.50;29.20;;;;;;6239036;28;20192;-61
2023/03/29 15:31:33;;;;;;;7.40;4.33;;;16.10;27.90;;;;;;6242032;28;20257;-61
2023/03/29 15:34:34;;;;;;;5.77;4.50;;;15.60;29.40;;;;;;6234672;28;20280;-61
2023/03/29 15:37:35;;;;;;;6.73;3.90;;;15.10;29.90;;;;;;6221189;28;20197;-61
2023/03/29 15:40:36;;;;;;;5.67;4.30;;;15.00;30.90;;;;;;6235023;28;20195;-63
2023/03/29 15:43:37;;;;;;;5.73;4.20;;;15.00;30.80;;;;;;6259434;28;20189;-63
2023/03/29 15:46:37;;;;;;;6.37;4.30;;;14.30;30.00;;;;;;6233672;28;20234;-62
2023/03/29 15:49:38;;;;;;;6.23;4.57;;;14.10;30.70;;;;;;6233749;28;20225;-60
2023/03/29 15:52:39;;;;;;;6.17;4.60;;;13.50;31.20;;;;;;6254340;28;20367;-61
2023/03/29 15:55:42;;;;;;;5.07;4.30;;;;;;;;;;6230379;28;20275;-62
2023/03/29 15:58:43;;;;;;;7.40;4.50;;;;;;;;;;6241828;28;20203;-61
2023/03/29 16:01:45;;;;;;;6.00;3.97;;;;;;;;;;6218045;28;20205;-62
2023/03/29 16:04:46;;;;;;;6.33;4.67;;;;;;;;;;6239121;28;20223;-60
2023/03/29 16:07:47;;;;;;;7.20;4.60;;;;;;;;;;6248385;28;20194;-63
2023/03/29 16:10:48;;;;;;;8.27;5.03;;;;;;;;;;6224177;28;20195;-62
2023/03/29 16:13:50;;;;;;;6.73;4.97;;;;;;;;;;6247138;28;20246;-63
2023/03/29 16:16:51;;;;;;;7.27;5.10;;;;;;;;;;6243895;28;20265;-61
2023/03/29 16:19:52;;;;;;;9.07;5.53;;;;;;;;;;6224862;28;20186;-61
2023/03/29 16:22:54;;;;;;;6.73;4.57;;;;;;;;;;6236362;28;20211;-61
2023/03/29 16:25:55;;;;;;;7.13;4.80;;;;;;;;;;6261688;28;20209;-62
2023/03/29 16:28:56;;;;;;;6.43;4.73;;;;;;;;;;6237806;28;20198;-63
2023/03/29 16:31:56;;;;;;;6.63;4.20;;;13.10;32.80;;;;;;6246451;28;20229;-62
2023/03/29 16:34:57;;;;;;;13.80;4.83;;;11.20;37.50;;;;;;6264891;28;20277;-62
2023/03/29 16:37:58;;;;;;;7.60;4.83;;;11.10;37.90;;;;;;6264087;28;20197;-62
2023/03/29 16:41:00;;;;;;;5.93;4.57;;;10.90;38.00;;;;;;6246787;28;20621;-62
2023/03/29 16:44:01;;;;;;;8.10;4.60;;;10.80;37.90;;;;;;6243714;28;20266;-62
2023/03/29 16:47:01;;;;;;;6.80;4.53;;;10.50;38.60;;;;;;6247060;28;20202;-62
2023/03/29 16:50:02;;;;;;;7.33;4.50;;;10.30;38.40;;;;;;6248198;28;20195;-62
2023/03/29 16:53:04;;;;;;;7.60;4.53;;;;;;;;;;6234568;28;20212;-62
2023/03/29 16:56:06;;;;;;;9.60;4.57;;;;;;;;;;6245214;28;20229;-62
2023/03/29 16:59:08;;;;;;;6.60;4.30;;;;;;;;;;6230525;28;20245;-62
2023/03/29 17:02:09;;;;;;;4.77;4.20;;;;;;;;;;6220837;28;20289;-62
2023/03/29 17:05:11;;;;;;;7.87;4.17;;;;;;;;;;6247798;28;20194;-62
2023/03/29 17:08:12;;;;;;;5.30;3.63;;;;;;;;;;6242250;28;20195;-62
2023/03/29 17:11:14;;;;;;;5.73;4.50;;;;;;;;;;6254910;28;20208;-62
2023/03/29 17:14:15;;;;;;;4.63;4.07;;;;;;;;;;6232719;28;20229;-62
2023/03/29 17:17:16;;;;;;;4.70;3.40;;;;;;;;;;6251880;28;20179;-62
2023/03/29 17:20:18;;;;;;;6.17;4.10;;;;;;;;;;6264044;28;20186;-62
2023/03/29 17:23:19;;;;;;;5.30;3.80;;;;;;;;;;6242221;28;20202;-63
2023/03/29 17:26:20;;;;;;;6.23;4.00;;;;;;;;;;6222130;28;20194;-62
2023/03/29 17:29:21;;;;;;;4.53;3.90;;;;;;;;;;6242080;28;20278;-62
2023/03/29 17:32:22;;;;;;;5.97;3.77;;;;;;;;;;6221634;28;20253;-62
2023/03/29 17:35:23;;;;;;;4.13;3.73;;;;;;;;;;6244792;28;20197;-62
2023/03/29 17:38:27;;;;;;;4.80;3.43;;;;;;;;;;6230150;28;20194;-62
2023/03/29 17:41:28;;;;;;;4.10;3.70;;;;;;;;;;6232012;28;20577;-62
2023/03/29 17:44:32;;;;;;;4.97;3.83;;;;;;;;;;6258928;28;20191;-62
2023/03/29 17:47:33;;;;;;;5.80;4.10;;;;;;;;;;6253568;28;20250;-62
2023/03/29 17:50:34;;;;;;;3.83;3.40;;;;;;;;;;6254712;28;20193;-62
2023/03/29 17:53:35;;;;;;;3.70;3.30;;;;;;;;;;6246368;28;20232;-62
2023/03/29 17:56:37;;;;;;;4.07;3.47;;;;;;;;;;6227367;28;20191;-62
2023/03/29 17:59:38;;;;;;;6.47;4.00;;;;;;;;;;6257307;28;20182;-62
2023/03/29 18:02:41;;;;;;;5.20;4.00;;;;;;;;;;6223535;28;20221;-62
2023/03/29 18:05:43;;;;;;;4.50;3.80;;;;;;;;;;6243849;28;20223;-62